| time (UTC) | temp C | wind direction | speed KPH | gust KPH | rain 1hr cm | rain 24hr cm | rain mn cm | humidity % | barometer mb |
| 20260507231529 | 13 | 202 | 0.0 | 3.2 | 0.05 | 0.64 | 0.10 | 91 | 1014.8 |
| 20260507230030 | 13 | 202 | 0.0 | 3.2 | 0.10 | 0.64 | 0.10 | 91 | 1014.8 |
| 20260507224522 | 13 | 217 | 0.0 | 3.2 | 0.13 | 0.64 | 0.10 | 90 | 1014.9 |
| 20260507223024 | 13 | 256 | 0.0 | 3.2 | 0.13 | 0.61 | 0.08 | 90 | 1015.0 |
| 20260507221533 | 13 | 215 | 0.0 | 0.0 | 0.10 | 0.56 | 0.05 | 90 | 1015.0 |
| 20260507220036 | 13 | 215 | 0.0 | 1.6 | 0.10 | 0.51 | 0.00 | 90 | 1015.0 |
| 20260507214529 | 13 | 215 | 0.0 | 3.2 | 0.18 | 0.48 | 0.48 | 90 | 1015.0 |
| 20260507213029 | 13 | 262 | 0.0 | 3.2 | 0.18 | 0.46 | 0.46 | 89 | 1015.0 |
| 20260507211528 | 13 | 250 | 1.6 | 3.2 | 0.18 | 0.46 | 0.46 | 88 | 1014.8 |
| 20260507210030 | 14 | 259 | 0.0 | 3.2 | 0.13 | 0.38 | 0.38 | 87 | 1014.6 |
| 20260507204531 | 14 | 206 | 0.0 | 0.0 | 0.08 | 0.30 | 0.30 | 86 | 1014.5 |
| 20260507203030 | 14 | 183 | 0.0 | 0.0 | 0.05 | 0.28 | 0.28 | 85 | 1014.5 |
| 20260507201525 | 15 | 169 | 0.0 | 3.2 | 0.05 | 0.28 | 0.28 | 84 | 1014.5 |
| 20260507200031 | 15 | 222 | 0.0 | 3.2 | 0.03 | 0.25 | 0.25 | 82 | 1014.3 |
| 20260507194535 | 15 | 234 | 0.0 | 3.2 | 0.00 | 0.23 | 0.23 | 79 | 1014.3 |
| 20260507193029 | 15 | 264 | 0.0 | 3.2 | 0.00 | 0.20 | 0.20 | 74 | 1014.1 |
| 20260507191530 | 16 | 260 | 0.0 | 3.2 | 0.00 | 0.20 | 0.20 | 72 | 1013.9 |
| 20260507190040 | 16 | 263 | 3.2 | 11.3 | 0.00 | 0.20 | 0.20 | 70 | 1013.5 |
| 20260507184532 | 16 | 219 | 0.0 | 3.2 | 0.00 | 0.20 | 0.20 | 72 | 1013.4 |
| 20260507183030 | 16 | 192 | 1.6 | 4.8 | 0.00 | 0.20 | 0.20 | 78 | 1013.2 |
| 20260507181528 | 17 | 197 | 1.6 | 8.0 | 0.00 | 0.20 | 0.20 | 80 | 1013.1 |
| 20260507180026 | 17 | 169 | 3.2 | 9.7 | 0.00 | 0.20 | 0.20 | 78 | 1013.0 |
| 20260507174513 | 17 | 204 | 4.8 | 9.7 | 0.00 | 0.20 | 0.20 | 75 | 1012.8 |
| 20260507173034 | 17 | 192 | 3.2 | 14.5 | 0.00 | 0.20 | 0.20 | 74 | 1012.8 |
| 20260507171521 | 17 | 148 | 6.4 | 14.5 | 0.00 | 0.20 | 0.20 | 73 | 1012.7 |
| 20260507170024 | 17 | 129 | 3.2 | 9.7 | 0.00 | 0.20 | 0.20 | 74 | 1012.6 |
| 20260507164536 | 17 | 210 | 1.6 | 6.4 | 0.00 | 0.20 | 0.20 | 75 | 1012.5 |
| 20260507163014 | 17 | 225 | 3.2 | 12.9 | 0.00 | 0.20 | 0.20 | 73 | 1012.5 |
| 20260507161518 | 18 | 163 | 8.0 | 14.5 | 0.00 | 0.20 | 0.20 | 73 | 1012.6 |
| 20260507160025 | 18 | 207 | 1.6 | 19.3 | 0.00 | 0.20 | 0.20 | 75 | 1012.5 |
| 20260507154527 | 18 | 198 | 4.8 | 14.5 | 0.05 | 0.20 | 0.20 | 78 | 1012.5 |
| 20260507153035 | 17 | 175 | 4.8 | 14.5 | 0.18 | 0.20 | 0.20 | 80 | 1012.8 |
| 20260507151516 | 17 | 153 | 6.4 | 12.9 | 0.20 | 0.20 | 0.20 | 80 | 1012.8 |
| 20260507150022 | 17 | 196 | 3.2 | 14.5 | 0.20 | 0.20 | 0.20 | 82 | 1012.8 |
| 20260507144534 | 17 | 151 | 4.8 | 19.3 | 0.15 | 0.15 | 0.15 | 79 | 1012.8 |
| 20260507143028 | 20 | 169 | 8.0 | 37.0 | 0.03 | 0.03 | 0.03 | 71 | 1012.6 |
| 20260507141529 | 22 | 200 | 9.7 | 24.1 | 0.00 | 0.00 | 0.00 | 53 | 1012.4 |
| 20260507140022 | 23 | 151 | 3.2 | 14.5 | 0.00 | 0.00 | 0.00 | 48 | 1012.1 |
| 20260507134522 | 23 | 193 | 4.8 | 12.9 | 0.00 | 0.00 | 0.00 | 47 | 1012.1 |
| 20260507133028 | 23 | 216 | 6.4 | 9.7 | 0.00 | 0.00 | 0.00 | 46 | 1012.1 |
| 20260507131528 | 24 | 284 | 8.0 | 14.5 | 0.00 | 0.00 | 0.00 | 45 | 1012.2 |
| 20260507130017 | 23 | 120 | 6.4 | 17.7 | 0.00 | 0.00 | 0.00 | 47 | 1012.3 |
| 20260507124530 | 22 | 171 | 4.8 | 12.9 | 0.00 | 0.00 | 0.00 | 49 | 1012.4 |
| 20260507123027 | 22 | 304 | 8.0 | 14.5 | 0.00 | 0.00 | 0.00 | 51 | 1012.5 |
| 20260507121528 | 22 | 190 | 4.8 | 19.3 | 0.00 | 0.00 | 0.00 | 52 | 1012.5 |
| 20260507120026 | 22 | 289 | 4.8 | 14.5 | 0.00 | 0.00 | 0.00 | 54 | 1012.7 |
| 20260507114519 | 21 | 164 | 3.2 | 17.7 | 0.00 | 0.00 | 0.00 | 58 | 1012.7 |
| 20260507113041 | 21 | 298 | 8.0 | 16.1 | 0.00 | 0.00 | 0.00 | 59 | 1012.9 |
| 20260507111537 | 20 | 175 | 3.2 | 16.1 | 0.00 | 0.00 | 0.00 | 63 | 1013.0 |
| 20260507110029 | 20 | 168 | 3.2 | 17.7 | 0.00 | 0.00 | 0.00 | 65 | 1013.1 |
| 20260507104537 | 19 | 223 | 3.2 | 17.7 | 0.00 | 0.00 | 0.00 | 66 | 1013.1 |
| 20260507103026 | 20 | 199 | 3.2 | 12.9 | 0.00 | 0.00 | 0.00 | 65 | 1013.0 |
| 20260507101528 | 20 | 202 | 6.4 | 14.5 | 0.00 | 0.00 | 0.00 | 65 | 1013.1 |
| 20260507100014 | 20 | 185 | 6.4 | 16.1 | 0.00 | 0.00 | 0.00 | 64 | 1013.1 |
| 20260507094518 | 20 | 166 | 8.0 | 17.7 | 0.00 | 0.00 | 0.00 | 63 | 1013.1 |
| 20260507093021 | 20 | 209 | 4.8 | 14.5 | 0.00 | 0.00 | 0.00 | 61 | 1012.9 |
| 20260507091527 | 20 | 142 | 6.4 | 11.3 | 0.00 | 0.00 | 0.00 | 63 | 1012.8 |
| 20260507090009 | 20 | 157 | 4.8 | 17.7 | 0.00 | 0.00 | 0.00 | 64 | 1012.7 |
| 20260507084514 | 19 | 234 | 6.4 | 17.7 | 0.00 | 0.00 | 0.00 | 64 | 1012.5 |
| 20260507083020 | 20 | 186 | 3.2 | 16.1 | 0.00 | 0.00 | 0.00 | 64 | 1012.5 |
| 20260507081534 | 20 | 301 | 3.2 | 14.5 | 0.00 | 0.00 | 0.00 | 65 | 1012.3 |
| 20260507080011 | 20 | 186 | 8.0 | 16.1 | 0.00 | 0.00 | 0.00 | 64 | 1012.3 |
| 20260507074511 | 19 | 167 | 4.8 | 19.3 | 0.00 | 0.00 | 0.00 | 68 | 1012.2 |
| 20260507073016 | 19 | 200 | 4.8 | 11.3 | 0.00 | 0.00 | 0.00 | 69 | 1012.1 |
| 20260507071521 | 19 | 188 | 3.2 | 11.3 | 0.00 | 0.00 | 0.00 | 70 | 1012.1 |
| 20260507070028 | 18 | 173 | 4.8 | 12.9 | 0.00 | 0.00 | 0.00 | 74 | 1012.1 |
| 20260507064512 | 18 | 279 | 3.2 | 12.9 | 0.00 | 0.00 | 0.00 | 76 | 1012.1 |
| 20260507063016 | 17 | 188 | 1.6 | 16.1 | 0.00 | 0.00 | 0.00 | 76 | 1012.1 |
| 20260507061518 | 17 | 194 | 6.4 | 11.3 | 0.00 | 0.00 | 0.00 | 76 | 1012.2 |
| 20260507060026 | 17 | 172 | 3.2 | 8.0 | 0.00 | 0.00 | 0.00 | 78 | 1011.9 |
| 20260507054528 | 16 | 210 | 1.6 | 3.2 | 0.00 | 0.00 | 0.00 | 81 | 1012.1 |
| 20260507053014 | 16 | 192 | 3.2 | 4.8 | 0.00 | 0.00 | 0.00 | 80 | 1011.8 |
| 20260507051518 | 16 | 313 | 0.0 | 3.2 | 0.00 | 0.00 | 0.00 | 83 | 1011.6 |
| 20260507050030 | 15 | 314 | 0.0 | 1.6 | 0.00 | 0.00 | 0.00 | 83 | 1011.5 |
| 20260507044524 | 15 | 315 | 0.0 | 3.2 | 0.00 | 0.00 | 0.00 | 86 | 1011.5 |
| 20260507043029 | 15 | 192 | 0.0 | 3.2 | 0.00 | 0.00 | 0.00 | 86 | 1011.3 |
| 20260507041515 | 14 | 151 | 0.0 | 3.2 | 0.00 | 0.00 | 0.00 | 86 | 1011.1 |
| 20260507040019 | 14 | 152 | 0.0 | 3.2 | 0.00 | 0.00 | 0.00 | 85 | 1011.0 |
| 20260507034531 | 15 | 165 | 0.0 | 3.2 | 0.00 | 0.00 | 0.00 | 85 | 1011.0 |
| 20260507033029 | 15 | 165 | 0.0 | 3.2 | 0.00 | 0.00 | 0.00 | 82 | 1011.0 |
| 20260507031519 | 15 | 137 | 0.0 | 3.2 | 0.00 | 0.00 | 0.00 | 81 | 1011.0 |
| 20260507030021 | 15 | 137 | 0.0 | 3.2 | 0.00 | 0.00 | 0.00 | 78 | 1011.1 |
| 20260507024524 | 15 | 174 | 0.0 | 3.2 | 0.00 | 0.00 | 0.00 | 78 | 1010.9 |
| 20260507023026 | 15 | 192 | 0.0 | 3.2 | 0.00 | 0.00 | 0.00 | 78 | 1010.8 |
| 20260507021526 | 15 | 189 | 0.0 | 3.2 | 0.00 | 0.00 | 0.00 | 76 | 1010.7 |
| 20260507020027 | 15 | 182 | 0.0 | 3.2 | 0.00 | 0.00 | 0.00 | 74 | 1010.7 |
| 20260507014522 | 16 | 182 | 0.0 | 3.2 | 0.00 | 0.00 | 0.00 | 73 | 1010.9 |
| 20260507013026 | 16 | 206 | 0.0 | 3.2 | 0.00 | 0.00 | 0.00 | 73 | 1011.0 |
| 20260507011540 | 16 | 257 | 0.0 | 3.2 | 0.00 | 0.00 | 0.00 | 73 | 1010.8 |
| 20260507010016 | 16 | 153 | 0.0 | 4.8 | 0.00 | 0.00 | 0.00 | 73 | 1010.8 |
| 20260507004519 | 15 | 210 | 0.0 | 3.2 | 0.00 | 0.00 | 0.00 | 73 | 1010.8 |
| 20260507003024 | 15 | 144 | 1.6 | 6.4 | 0.00 | 0.00 | 0.00 | 74 | 1010.6 |
| 20260507001600 | 15 | 225 | 0.0 | 3.2 | 0.00 | 0.00 | 0.00 | 74 | 1010.5 |
| 20260507000016 | 15 | 225 | 0.0 | 6.4 | 0.00 | 0.00 | 0.00 | 75 | 1010.3 |
| 20260506234518 | 14 | 132 | 0.0 | 3.2 | 0.00 | 0.00 | 0.00 | 76 | 1010.2 |
| 20260506233025 | 14 | 360 | 0.0 | 3.2 | 0.00 | 0.00 | 0.00 | 77 | 1010.1 |